Time;durP1;ratioP1;P1;durP2;ratioP2;P2;SDS_P1;SDS_P2;PMS_P1;PMS_P2;Temp;Humidity;BMP_temperature;BMP_pressure;BME280_temperature;BME280_humidity;BME280_pressure;Samples;Min_cycle;Max_cycle;Signal;HPM_P1;HPM_P2
2022/06/15 00:02:00;;;;;;;;;11.25;9.00;;;;;23.43;37.52;100941.91;4976356;28;46460;-50
2022/06/15 00:04:26;;;;;;;;;7.00;7.00;;;;;23.46;37.70;100955.28;4964683;28;45449;-55
2022/06/15 00:06:52;;;;;;;;;12.40;8.00;;;;;23.38;38.07;100951.16;4970193;28;45772;-55
2022/06/15 00:09:17;;;;;;;;;9.25;7.50;;;;;23.33;38.41;100950.38;4976617;28;45421;-50
2022/06/15 00:11:43;;;;;;;;;12.75;10.00;;;;;23.10;38.04;100916.41;4977489;28;45342;-51
2022/06/15 00:14:16;;;;;;;;;9.25;9.25;;;;;23.24;38.10;100927.75;4977830;28;45401;-54
2022/06/15 00:16:41;;;;;;;;;8.60;7.20;;;;;23.32;38.29;100951.50;4977661;28;45468;-51
2022/06/15 00:19:07;;;;;;;;;8.50;7.00;;;;;23.34;38.37;100938.88;4978167;28;45316;-53
2022/06/15 00:21:33;;;;;;;;;9.75;9.75;;;;;23.35;38.16;100945.31;4976925;28;45355;-50
2022/06/15 00:23:58;;;;;;;;;7.25;7.25;;;;;23.25;38.03;100941.44;4989188;28;45347;-50
2022/06/15 00:26:24;;;;;;;;;7.25;7.25;;;;;23.23;38.19;100942.88;4997215;28;45784;-52
2022/06/15 00:28:51;;;;;;;;;8.50;8.50;;;;;23.13;38.49;100950.25;4997263;28;45357;-55
2022/06/15 00:31:17;;;;;;;;;8.20;7.20;;;;;23.08;38.73;100944.66;4995468;28;46851;-52
2022/06/15 00:33:43;;;;;;;;;8.00;7.00;;;;;23.04;38.70;100945.56;5028772;28;45525;-57
2022/06/15 00:36:10;;;;;;;;;8.00;7.00;;;;;22.93;38.69;100933.59;4997418;28;45433;-50
2022/06/15 00:38:41;;;;;;;;;6.20;5.20;;;;;22.77;38.93;100921.69;4997153;28;45311;-49
2022/06/15 00:41:09;;;;;;;;;9.00;7.60;;;;;22.82;39.24;100944.00;4996910;28;46622;-53
2022/06/15 00:43:37;;;;;;;;;7.00;7.00;;;;;22.87;39.05;100933.63;4996768;28;45281;-52
2022/06/15 00:46:30;;;;;;;;;8.00;8.00;;;;;23.05;38.60;100950.03;4996947;28;45276;-50
2022/06/15 00:49:11;;;;;;;;;6.00;6.00;;;;;22.87;39.12;100953.22;5029247;28;45502;-52
2022/06/15 00:51:37;;;;;;;;;7.20;7.20;;;;;22.63;39.09;100921.50;5009856;28;45930;-53
2022/06/15 00:54:02;;;;;;;;;5.75;5.75;;;;;22.68;38.93;100927.06;5012172;28;45406;-51
2022/06/15 00:56:29;;;;;;;;;8.50;6.50;;;;;22.80;39.13;100941.53;4995108;28;45464;-54
2022/06/15 00:58:58;;;;;;;;;7.00;5.60;;;;;22.68;39.00;100932.66;5011844;28;45401;-51
2022/06/15 01:01:24;;;;;;;;;7.40;6.60;;;;;22.81;39.19;100946.00;4995627;28;47734;-54
2022/06/15 01:03:49;;;;;;;;;6.00;6.00;;;;;22.80;39.38;100951.88;5028261;28;45386;-52
2022/06/15 01:06:32;;;;;;;;;7.75;6.25;;;;;22.81;39.25;100947.94;4995726;28;45762;-53
2022/06/15 01:08:59;;;;;;;;;5.80;5.80;;;;;22.82;39.13;100949.59;5028766;28;45483;-52
2022/06/15 01:11:47;;;;;;;;;3.40;3.40;;;;;22.71;39.22;100940.44;5027968;28;46756;-52
2022/06/15 01:14:37;;;;;;;;;8.40;8.00;;;;;22.85;39.35;100957.44;5023734;28;45719;-53
2022/06/15 01:17:34;;;;;;;;;5.40;5.40;;;;;22.68;39.40;100943.84;4996375;28;45382;-52
2022/06/15 01:20:05;;;;;;;;;9.80;7.80;;;;;22.73;39.70;100957.81;5023711;28;45253;-56
2022/06/15 01:23:06;;;;;;;;;6.60;6.60;;;;;22.70;39.68;100953.63;5028058;28;45823;-52
2022/06/15 01:25:44;;;;;;;;;6.60;6.00;;;;;22.68;39.80;100955.03;4957431;28;45383;-49
2022/06/15 01:28:13;;;;;;;;;5.00;4.20;;;;;22.60;39.94;100953.66;4956998;28;45379;-55
2022/06/15 01:31:11;;;;;;;;;6.00;6.00;;;;;22.54;40.01;100950.06;4957713;28;45307;-55
2022/06/15 01:33:49;;;;;;;;;6.80;6.80;;;;;22.57;40.18;100963.47;4953241;28;45581;-55
2022/06/15 01:36:42;;;;;;;;;4.00;4.00;;;;;22.47;40.23;100952.31;4956987;28;45444;-51
2022/06/15 01:39:18;;;;;;;;;9.40;6.20;;;;;22.56;40.38;100955.34;4957097;28;45344;-51
2022/06/15 01:42:00;;;;;;;;;8.20;5.60;;;;;22.47;40.97;100943.94;4956065;28;45405;-54
2022/06/15 01:44:33;;;;;;;;;4.20;3.00;;;;;22.40;41.03;100941.44;4956593;28;46580;-51
2022/06/15 01:47:04;;;;;;;;;3.80;3.80;;;;;22.27;41.47;100940.13;4971970;28;45397;-51
2022/06/15 01:49:40;;;;;;;;;2.80;2.80;;;;;22.30;41.37;100931.16;4956003;28;45304;-49
2022/06/15 01:52:07;;;;;;;;;5.00;5.00;;;;;22.17;41.29;100915.00;4940363;28;45484;-54
2022/06/15 01:54:36;;;;;;;;;5.00;5.00;;;;;22.05;41.75;100907.78;4955552;28;47122;-54
2022/06/15 01:57:02;;;;;;;;;6.40;6.00;;;;;22.21;41.83;100935.66;4955870;28;45427;-54
2022/06/15 01:59:32;;;;;;;;;6.20;6.20;;;;;22.25;41.64;100928.38;4955933;28;45524;-50
2022/06/15 02:02:03;;;;;;;;;7.60;7.20;;;;;22.29;41.95;100932.28;4963608;28;45698;-48
2022/06/15 02:04:38;;;;;;;;;7.80;7.60;;;;;22.31;41.80;100929.19;4995829;28;45418;-52
2022/06/15 02:07:33;;;;;;;;;4.60;4.60;;;;;22.25;42.01;100925.56;5024471;28;45473;-52
2022/06/15 02:10:00;;;;;;;;;5.40;5.40;;;;;22.23;41.95;100916.63;5025367;28;45387;-55
2022/06/15 02:12:36;;;;;;;;;8.20;5.60;;;;;22.25;42.04;100914.38;4991465;28;45898;-52
2022/06/15 02:15:01;;;;;;;;;4.20;4.20;;;;;22.26;42.14;100913.28;5009212;28;46224;-50
2022/06/15 02:17:36;;;;;;;;;5.00;5.00;;;;;22.31;41.80;100918.00;5024996;28;45311;-54
2022/06/15 02:20:08;;;;;;;;;7.00;6.00;;;;;22.23;42.07;100907.41;5027361;28;45327;-50
2022/06/15 02:22:34;;;;;;;;;6.80;5.40;;;;;22.07;42.28;100888.78;5010101;28;45597;-52
2022/06/15 02:25:01;;;;;;;;;6.75;5.75;;;;;22.23;42.18;100905.47;4998574;28;45372;-52
2022/06/15 02:27:27;;;;;;;;;5.20;5.20;;;;;22.31;42.24;100912.41;4958220;28;45488;-53
2022/06/15 02:29:55;;;;;;;;;5.60;5.60;;;;;22.36;42.20;100912.38;4975874;28;45269;-53
2022/06/15 02:32:20;;;;;;;;;5.80;5.60;;;;;22.31;42.28;100913.25;4974716;28;45441;-50
2022/06/15 02:34:46;;;;;;;;;4.25;4.25;;;;;21.94;42.18;100848.31;4974471;28;46449;-53
2022/06/15 02:37:11;;;;;;;;;5.00;5.00;;;;;22.34;42.39;100912.69;4975938;28;45851;-54
2022/06/15 02:39:37;;;;;;;;;5.00;5.00;;;;;22.33;42.54;100912.97;4975652;28;45515;-50
2022/06/15 02:42:24;;;;;;;;;5.75;5.75;;;;;21.88;42.74;100868.19;4975951;28;45396;-54
2022/06/15 02:44:50;;;;;;;;;4.80;4.80;;;;;22.05;42.70;100885.41;4974718;28;45458;-55
2022/06/15 02:47:15;;;;;;;;;6.00;6.00;;;;;22.21;42.89;100908.53;4958380;28;45490;-50
2022/06/15 02:49:41;;;;;;;;;4.75;4.75;;;;;22.25;42.85;100913.56;4974581;28;45348;-50
2022/06/15 02:52:06;;;;;;;;;5.75;5.75;;;;;22.20;42.85;100906.06;4974787;28;45662;-50
2022/06/15 02:54:36;;;;;;;;;4.25;4.00;;;;;22.25;42.79;100907.97;4974130;28;45636;-53
2022/06/15 02:57:02;;;;;;;;;6.40;5.20;;;;;22.17;43.09;100901.03;4974419;28;45406;-51
2022/06/15 02:59:28;;;;;;;;;4.75;4.75;;;;;22.14;43.26;100912.78;4973924;28;45470;-50
2022/06/15 03:01:55;;;;;;;;;6.50;5.00;;;;;22.01;43.52;100912.28;4976138;28;45605;-53
2022/06/15 03:04:20;;;;;;;;;5.60;4.40;;;;;22.03;43.48;100914.75;4975385;28;46196;-51
2022/06/15 03:06:46;;;;;;;;;3.25;3.25;;;;;22.10;43.50;100914.47;4975371;28;45351;-52
2022/06/15 03:09:11;;;;;;;;;4.50;4.50;;;;;21.92;43.24;100884.09;4975604;28;45520;-53
2022/06/15 03:11:39;;;;;;;;;4.00;4.00;;;;;22.07;43.55;100913.94;4975633;28;45663;-51
2022/06/15 03:14:04;;;;;;;;;7.60;6.80;;;;;22.10;43.45;100917.25;4958025;28;46307;-50
2022/06/15 03:16:30;;;;;;;;;7.25;5.25;;;;;22.07;43.53;100913.94;4975289;28;45201;-54
2022/06/15 03:18:55;;;;;;;;;5.75;5.75;;;;;22.11;43.70;100921.72;4974131;28;45443;-52
2022/06/15 03:21:21;;;;;;;;;4.50;3.50;;;;;22.10;43.62;100923.69;4977611;28;46011;-50
2022/06/15 03:23:47;;;;;;;;;5.50;5.50;;;;;21.91;43.45;100890.81;4980184;28;45387;-51
2022/06/15 03:26:12;;;;;;;;;5.25;5.25;;;;;21.96;43.43;100892.72;4998108;28;45537;-55
2022/06/15 03:28:38;;;;;;;;;7.00;7.00;;;;;22.08;43.47;100909.16;4998228;28;45499;-52
2022/06/15 03:31:03;;;;;;;;;7.00;6.75;;;;;22.02;43.71;100907.50;4998358;28;45440;-54
2022/06/15 03:33:29;;;;;;;;;5.50;5.50;;;;;22.09;43.93;100915.59;5029845;28;45649;-50
2022/06/15 03:35:55;;;;;;;;;6.00;6.00;;;;;22.16;43.84;100922.56;4997964;28;45462;-52
2022/06/15 03:38:21;;;;;;;;;5.20;5.20;;;;;22.15;43.96;100917.25;4998384;28;45414;-54
2022/06/15 03:40:46;;;;;;;;;6.00;6.00;;;;;22.02;43.90;100897.19;4998535;28;45296;-55
2022/06/15 03:43:13;;;;;;;;;7.25;7.00;;;;;22.13;44.11;100913.88;5030074;28;45592;-54
2022/06/15 03:45:39;;;;;;;;;9.60;8.60;;;;;22.17;44.00;100923.38;4998363;28;45408;-54
2022/06/15 03:48:04;;;;;;;;;7.60;7.00;;;;;22.07;44.14;100913.06;5030047;28;45478;-54
2022/06/15 03:50:35;;;;;;;;;8.75;7.75;;;;;22.09;44.15;100915.59;5030381;28;45749;-51
2022/06/15 03:53:01;;;;;;;;;7.40;6.20;;;;;22.11;44.13;100919.78;4976185;28;47924;-55
2022/06/15 03:55:28;;;;;;;;;7.00;7.00;;;;;21.84;44.47;100898.66;4997505;28;45260;-53
2022/06/15 03:57:54;;;;;;;;;6.00;6.00;;;;;21.89;44.57;100914.56;4997828;28;45327;-52
2022/06/15 04:00:20;;;;;;;;;7.25;7.25;;;;;21.79;44.58;100893.88;4997209;28;45281;-54
2022/06/15 04:02:46;;;;;;;;;6.40;6.40;;;;;21.99;44.57;100919.25;4998293;28;45355;-54
2022/06/15 04:05:18;;;;;;;;;5.50;5.50;;;;;22.01;44.40;100926.25;4996336;28;45411;-53
2022/06/15 04:10:28;;;;;;;;;4.60;4.60;;;;;21.82;44.51;100889.69;4997943;28;45302;-54
2022/06/15 04:12:53;;;;;;;;;8.00;8.00;;;;;22.00;44.47;100913.41;4997717;28;45561;-53
2022/06/15 04:15:19;;;;;;;;;8.00;8.00;;;;;22.04;44.34;100920.06;4996515;28;45357;-48
2022/06/15 04:17:44;;;;;;;;;7.50;6.75;;;;;21.90;44.29;100896.66;4997932;28;45377;-51
2022/06/15 04:22:57;;;;;;;;;6.80;5.80;;;;;21.96;44.59;100915.09;5010378;28;45378;-53
2022/06/15 04:25:22;;;;;;;;;4.75;4.75;;;;;21.69;44.57;100890.28;4984236;28;45427;-48
2022/06/15 04:27:48;;;;;;;;;5.75;5.75;;;;;21.67;44.58;100879.41;4978127;28;45289;-53
2022/06/15 04:30:13;;;;;;;;;5.75;5.75;;;;;21.92;44.26;100922.34;4977876;28;45560;-53
2022/06/15 04:32:39;;;;;;;;;7.50;7.25;;;;;21.98;44.77;100917.59;4977685;28;45384;-53
2022/06/15 04:35:05;;;;;;;;;6.75;6.00;;;;;22.05;44.58;100918.94;4977351;28;45335;-51
2022/06/15 04:37:30;;;;;;;;;6.20;6.20;;;;;22.06;44.42;100920.66;4977881;28;45464;-53
2022/06/15 04:39:56;;;;;;;;;7.00;6.75;;;;;22.10;44.40;100923.69;4976437;28;45436;-53
2022/06/15 04:42:21;;;;;;;;;8.75;6.75;;;;;22.14;44.41;100929.56;4977013;28;46719;-53
2022/06/15 04:44:47;;;;;;;;;6.00;5.50;;;;;22.12;44.68;100924.25;4976123;28;45451;-50
2022/06/15 04:47:12;;;;;;;;;6.25;6.25;;;;;22.17;44.52;100926.16;4977316;28;45511;-50
2022/06/15 04:49:38;;;;;;;;;7.75;6.50;;;;;22.15;44.42;100925.63;4976685;28;45468;-55
2022/06/15 04:52:03;;;;;;;;;7.00;7.00;;;;;22.14;44.41;100932.34;4977211;28;45274;-53
2022/06/15 04:54:29;;;;;;;;;6.25;5.25;;;;;22.13;44.51;100933.44;4976861;28;45491;-51
2022/06/15 04:56:54;;;;;;;;;7.25;6.75;;;;;22.13;44.48;100928.69;4976074;28;45420;-51
2022/06/15 04:59:20;;;;;;;;;8.00;7.75;;;;;22.12;44.49;100932.63;4967508;28;45783;-52
2022/06/15 05:01:45;;;;;;;;;7.50;7.50;;;;;21.98;44.53;100910.03;4974717;28;47227;-52
2022/06/15 05:04:11;;;;;;;;;8.00;8.00;;;;;22.11;44.50;100935.69;4977145;28;45354;-54
2022/06/15 05:06:38;;;;;;;;;7.50;7.50;;;;;22.03;44.74;100924.00;4977022;28;45399;-53
2022/06/15 05:09:04;;;;;;;;;9.20;8.00;;;;;22.12;44.68;100942.97;4976296;28;45427;-54
2022/06/15 05:11:30;;;;;;;;;7.20;7.00;;;;;22.09;44.55;100940.75;4976592;28;46515;-54
2022/06/15 05:13:55;;;;;;;;;9.50;8.00;;;;;21.95;44.53;100910.63;4975933;28;45567;-55
2022/06/15 05:16:21;;;;;;;;;9.75;8.00;;;;;22.15;44.53;100945.19;4959435;28;45306;-54
2022/06/15 05:18:47;;;;;;;;;8.75;8.25;;;;;22.04;44.71;100936.84;4977349;28;45236;-52
2022/06/15 05:21:12;;;;;;;;;9.75;8.00;;;;;22.07;44.60;100941.88;4976861;28;45967;-50
2022/06/15 05:23:38;;;;;;;;;10.00;8.50;;;;;22.12;44.72;100940.16;4975520;28;45356;-52
2022/06/15 05:26:04;;;;;;;;;6.75;6.50;;;;;21.96;44.82;100942.19;4993022;28;45346;-53
2022/06/15 05:28:29;;;;;;;;;8.25;8.25;;;;;21.73;45.03;100920.19;5028079;28;45353;-49
2022/06/15 05:31:04;;;;;;;;;9.25;8.25;;;;;21.93;45.05;100941.63;4996174;28;45358;-55
2022/06/15 05:33:32;;;;;;;;;10.20;7.60;;;;;21.79;44.95;100918.22;5027928;28;45551;-53
2022/06/15 05:36:06;;;;;;;;;9.40;9.00;;;;;21.99;44.62;100936.84;4995219;28;45355;-53
2022/06/15 05:38:32;;;;;;;;;9.20;8.20;;;;;22.04;44.72;100939.63;4996126;28;45322;-51
2022/06/15 05:40:57;;;;;;;;;11.25;8.00;;;;;22.08;44.77;100937.09;4996263;28;46537;-51
2022/06/15 05:43:23;;;;;;;;;6.75;6.75;;;;;22.12;44.71;100945.75;4995616;28;45353;-54
2022/06/15 05:45:48;;;;;;;;;9.00;8.00;;;;;22.14;44.52;100946.31;4996018;28;45447;-53
2022/06/15 05:48:14;;;;;;;;;7.00;7.00;;;;;22.15;44.51;100936.81;4995463;28;45315;-52
2022/06/15 05:50:39;;;;;;;;;10.50;9.00;;;;;22.11;44.58;100939.34;4995978;28;45752;-51
2022/06/15 05:53:05;;;;;;;;;9.25;7.75;;;;;21.96;44.43;100906.69;4996513;28;45370;-53
2022/06/15 05:55:30;;;;;;;;;10.75;10.75;;;;;22.07;44.55;100932.63;4996295;28;45249;-51
2022/06/15 05:57:56;;;;;;;;;7.75;7.50;;;;;21.88;44.66;100904.50;4996650;28;45410;-50
2022/06/15 06:00:25;;;;;;;;;12.00;10.60;;;;;22.11;44.44;100930.13;4995989;28;45611;-49
2022/06/15 06:02:51;;;;;;;;;11.40;8.40;;;;;22.14;44.78;100937.94;4996134;28;45330;-49
2022/06/15 06:05:16;;;;;;;;;11.20;9.00;;;;;22.19;44.49;100935.94;4995138;28;45401;-48
2022/06/15 06:07:42;;;;;;;;;7.00;7.00;;;;;22.26;44.46;100943.19;4994896;28;45375;-55
2022/06/15 06:10:08;;;;;;;;;8.00;8.00;;;;;22.23;44.40;100941.81;5028162;28;46574;-52
2022/06/15 06:12:33;;;;;;;;;9.00;9.00;;;;;22.30;44.72;100952.69;4994998;28;45431;-52
2022/06/15 06:14:59;;;;;;;;;12.00;9.75;;;;;22.32;44.25;100956.84;4996223;28;45419;-50
2022/06/15 06:17:25;;;;;;;;;12.50;10.75;;;;;22.32;44.27;100951.25;4995261;28;45522;-52
2022/06/15 06:19:51;;;;;;;;;10.25;8.50;;;;;22.31;44.45;100941.19;4995569;28;46726;-51
2022/06/15 06:22:16;;;;;;;;;14.80;13.00;;;;;22.29;44.37;100937.00;4996159;28;45380;-48
2022/06/15 06:24:42;;;;;;;;;11.50;10.00;;;;;22.23;44.17;100922.22;4991080;28;45469;-55
2022/06/15 06:27:08;;;;;;;;;13.50;11.00;;;;;22.37;44.06;100946.78;4975093;28;45661;-55
2022/06/15 06:29:34;;;;;;;;;11.75;11.00;;;;;22.26;44.08;100937.59;4926822;28;45915;-52
2022/06/15 06:32:00;;;;;;;;;9.00;7.60;;;;;22.30;44.28;100935.91;4942098;28;45683;-51
2022/06/15 06:34:26;;;;;;;;;11.80;10.20;;;;;22.23;44.03;100916.63;4976361;28;45297;-49
2022/06/15 06:36:51;;;;;;;;;11.75;10.25;;;;;22.42;43.77;100943.97;4975000;28;45405;-49
2022/06/15 06:39:28;;;;;;;;;9.00;9.00;;;;;22.48;43.88;100945.59;4974430;28;46776;-50
2022/06/15 06:41:54;;;;;;;;;12.00;10.20;;;;;22.28;43.53;100919.41;4958143;28;45496;-53
2022/06/15 06:44:20;;;;;;;;;11.60;11.60;;;;;22.36;43.54;100925.53;4974703;28;45412;-48
2022/06/15 06:46:46;;;;;;;;;10.25;10.25;;;;;22.58;43.58;100950.34;4976012;28;45407;-52
2022/06/15 06:49:12;;;;;;;;;15.20;12.80;;;;;22.57;43.41;100949.47;4958105;28;45688;-56
2022/06/15 06:51:38;;;;;;;;;12.00;9.00;;;;;22.50;44.75;100920.16;4974278;28;45451;-48
2022/06/15 06:54:04;;;;;;;;;11.00;11.00;;;;;22.68;43.84;100946.63;4974140;28;45426;-54
2022/06/15 06:56:29;;;;;;;;;11.20;10.80;;;;;22.66;43.79;100951.66;4977919;28;45700;-49
2022/06/15 06:58:55;;;;;;;;;10.25;9.00;;;;;22.55;43.56;100934.97;4979099;28;45645;-51
2022/06/15 07:01:20;;;;;;;;;15.00;14.25;;;;;22.60;43.29;100953.66;4978376;28;45496;-53
2022/06/15 07:03:47;;;;;;;;;11.25;10.00;;;;;22.52;43.78;100957.91;4979203;28;45312;-49
2022/06/15 07:06:13;;;;;;;;;15.80;12.80;;;;;22.56;43.83;100949.75;4977709;28;45579;-49
2022/06/15 07:08:39;;;;;;;;;9.50;9.50;;;;;22.59;43.38;100952.00;4979080;28;46452;-54
2022/06/15 07:11:12;;;;;;;;;13.50;11.25;;;;;22.59;43.15;100943.59;4977299;28;45389;-50
2022/06/15 07:13:38;;;;;;;;;10.60;10.60;;;;;22.57;43.02;100938.28;4977871;28;45760;-49
2022/06/15 07:16:08;;;;;;;;;12.50;10.75;;;;;22.71;42.93;100944.09;4978866;28;45672;-51
2022/06/15 07:18:33;;;;;;;;;9.20;9.20;;;;;22.55;42.49;100918.19;4977679;28;46548;-49
2022/06/15 07:21:05;;;;;;;;;10.50;8.50;;;;;22.78;42.81;100949.34;4978611;28;45369;-52
2022/06/15 07:23:30;;;;;;;;;12.40;10.00;;;;;22.87;42.58;100949.56;4978321;28;45396;-50
2022/06/15 07:25:56;;;;;;;;;9.75;9.75;;;;;22.87;42.72;100949.56;4990567;28;45364;-48
2022/06/15 07:28:22;;;;;;;;;7.75;6.00;;;;;22.95;42.41;100953.72;4998002;28;46632;-49
2022/06/15 07:30:47;;;;;;;;;14.00;10.00;;;;;23.00;42.73;100962.09;4960366;28;45275;-51
2022/06/15 07:33:15;;;;;;;;;10.75;10.50;;;;;23.04;42.47;100951.97;4978706;28;45224;-56
2022/06/15 07:35:41;;;;;;;;;12.20;9.80;;;;;22.95;41.52;100932.16;4978519;28;45304;-50
2022/06/15 07:38:07;;;;;;;;;9.20;6.80;;;;;22.93;41.88;100937.22;4978638;28;46239;-54
2022/06/15 07:40:32;;;;;;;;;9.50;8.50;;;;;23.12;41.94;100965.34;4977023;28;45506;-54
2022/06/15 07:42:58;;;;;;;;;10.25;9.25;;;;;23.19;41.77;100965.00;4977844;28;45340;-48
2022/06/15 07:45:24;;;;;;;;;10.25;8.75;;;;;23.15;41.34;100947.13;4975661;28;45590;-53
2022/06/15 07:50:35;;;;;;;;;9.00;8.00;;;;;23.31;41.30;100967.47;4956324;28;45473;-56
2022/06/15 07:53:01;;;;;;;;;11.75;8.50;;;;;23.35;41.73;100965.75;4975913;28;45498;-54
2022/06/15 07:55:29;;;;;;;;;10.80;8.40;;;;;23.26;42.05;100928.31;4960691;28;45508;-52
2022/06/15 07:57:55;;;;;;;;;10.40;9.20;;;;;23.47;41.08;100956.97;4961359;28;46809;-54
2022/06/15 08:00:21;;;;;;;;;10.25;8.50;;;;;23.57;41.14;100963.63;4978095;28;45304;-54
2022/06/15 08:02:46;;;;;;;;;7.50;7.50;;;;;23.62;41.23;100960.72;4978251;28;45342;-50
2022/06/15 08:05:12;;;;;;;;;14.00;10.25;;;;;23.63;40.59;100956.84;4981761;28;45596;-52
2022/06/15 08:07:38;;;;;;;;;12.75;9.50;;;;;23.66;41.12;100951.47;4976169;28;46386;-55
2022/06/15 08:10:04;;;;;;;;;9.50;8.75;;;;;23.54;41.09;100920.22;4977444;28;45584;-51
2022/06/15 08:12:29;;;;;;;;;9.00;9.00;;;;;23.83;40.70;100961.38;4976499;28;45374;-48
2022/06/15 08:14:58;;;;;;;;;10.75;7.25;;;;;23.70;41.11;100929.28;4978729;28;45240;-54
2022/06/15 08:17:26;;;;;;;;;12.40;11.00;;;;;23.94;41.07;100951.72;4975521;28;46403;-52
2022/06/15 08:19:58;;;;;;;;;10.40;9.20;;;;;24.00;40.70;100958.09;4977899;28;45376;-50
2022/06/15 08:22:24;;;;;;;;;10.60;9.80;;;;;24.08;40.41;100951.03;4976890;28;45430;-51
2022/06/15 08:24:50;;;;;;;;;8.50;7.25;;;;;24.11;39.40;100946.81;4977723;28;45365;-51
2022/06/15 08:27:16;;;;;;;;;10.00;9.00;;;;;24.07;39.25;100943.75;4996100;28;46000;-51
2022/06/15 08:29:42;;;;;;;;;10.40;7.60;;;;;24.21;39.44;100949.47;4980820;28;45395;-51
2022/06/15 08:32:08;;;;;;;;;8.00;7.00;;;;;24.21;39.78;100946.66;4960163;28;45321;-49
2022/06/15 08:34:37;;;;;;;;;7.80;7.00;;;;;24.27;39.35;100953.06;4955987;28;45451;-49
2022/06/15 08:37:16;;;;;;;;;8.20;7.80;;;;;24.28;39.74;100949.94;4977898;28;46062;-55
2022/06/15 08:39:42;;;;;;;;;7.60;7.60;;;;;24.14;39.20;100920.97;4976017;28;45357;-53
2022/06/15 08:42:20;;;;;;;;;10.00;10.00;;;;;24.43;39.06;100953.69;4975014;28;45219;-55
2022/06/15 08:45:01;;;;;;;;;9.60;8.40;;;;;24.37;38.68;100933.28;4977554;28;45248;-52
2022/06/15 08:48:24;;;;;;;;;10.20;7.40;;;;;24.52;38.45;100951.03;4975077;28;46572;-56
2022/06/15 08:51:06;;;;;;;;;9.40;8.20;;;;;24.58;39.25;100941.41;4935580;28;45392;-53
2022/06/15 08:53:49;;;;;;;;;7.40;7.40;;;;;24.66;38.51;100953.91;4905768;28;45388;-51
2022/06/15 08:56:19;;;;;;;;;10.00;8.60;;;;;24.71;38.57;100953.84;4965520;28;45526;-50
2022/06/15 08:58:58;;;;;;;;;9.60;6.40;;;;;24.71;37.89;100943.44;4975807;28;46604;-52
2022/06/15 09:01:40;;;;;;;;;11.40;10.00;;;;;24.74;38.42;100945.66;4976259;28;45539;-51
2022/06/15 09:04:18;;;;;;;;;6.40;5.80;;;;;24.83;37.90;100953.41;4976031;28;45357;-53
2022/06/15 09:06:49;;;;;;;;;7.00;7.00;;;;;24.92;38.15;100937.56;4977678;28;45392;-50
2022/06/15 09:09:23;;;;;;;;;9.80;8.00;;;;;24.99;37.53;100951.22;4977011;28;46525;-50
2022/06/15 09:15:17;;;;;;;;;9.20;8.00;;;;;25.19;37.16;100936.00;4975888;28;45520;-49
2022/06/15 09:17:43;;;;;;;;;6.20;6.20;;;;;25.28;37.73;100947.34;4976868;28;45165;-49
2022/06/15 09:20:24;;;;;;;;;8.25;8.00;;;;;25.03;36.71;100899.75;4958678;28;45341;-53
2022/06/15 09:22:56;;;;;;;;;8.20;8.00;;;;;25.40;37.06;100942.09;4960537;28;45354;-53
2022/06/15 09:25:27;;;;;;;;;6.80;6.80;;;;;25.46;37.07;100937.22;4945654;28;45381;-48
2022/06/15 09:28:05;;;;;;;;;6.40;6.40;;;;;25.36;37.08;100903.69;5011690;28;45399;-49
2022/06/15 09:30:33;;;;;;;;;6.00;6.00;;;;;25.61;36.34;100936.13;5028144;28;45762;-51
2022/06/15 09:33:00;;;;;;;;;6.20;6.20;;;;;25.70;36.23;100941.84;5011185;28;45411;-57
2022/06/15 09:35:36;;;;;;;;;7.00;7.00;;;;;25.75;35.92;100935.28;4985051;28;45360;-52
2022/06/15 09:38:04;;;;;;;;;6.00;6.00;;;;;25.81;36.04;100942.50;4951184;28;45457;-55
2022/06/15 09:40:37;;;;;;;;;7.00;4.00;;;;;25.82;36.33;100939.38;4974002;28;45303;-55
2022/06/15 09:43:41;;;;;;;;;7.40;7.20;;;;;25.88;36.13;100936.47;4959738;28;45198;-57
2022/06/15 09:46:38;;;;;;;;;10.40;8.80;;;;;25.86;36.30;100933.97;4976577;28;45250;-55
2022/06/15 09:49:21;;;;;;;;;10.80;8.80;;;;;25.90;36.37;100928.53;4976801;28;45534;-51
2022/06/15 09:51:55;;;;;;;;;7.80;7.80;;;;;25.82;35.56;100911.25;4975286;28;45487;-52
2022/06/15 09:54:36;;;;;;;;;8.00;8.00;;;;;26.03;35.50;100938.97;4959524;28;45341;-56
2022/06/15 09:57:01;;;;;;;;;6.40;6.20;;;;;26.04;36.06;100926.56;4976377;28;45314;-53
2022/06/15 09:59:32;;;;;;;;;7.00;6.00;;;;;26.07;35.83;100928.75;4976632;28;45470;-49
2022/06/15 10:01:58;;;;;;;;;7.40;7.00;;;;;26.09;36.07;100932.09;4976297;28;45635;-55
2022/06/15 10:04:26;;;;;;;;;5.50;5.50;;;;;26.09;35.78;100923.66;4975249;28;45844;-52
2022/06/15 10:07:15;;;;;;;;;9.40;7.80;;;;;26.17;35.76;100927.72;4959470;28;45456;-54
2022/06/15 10:09:48;;;;;;;;;12.80;9.60;;;;;26.24;35.38;100927.31;4976644;28;45304;-53
2022/06/15 10:12:56;;;;;;;;;8.40;8.40;;;;;26.31;35.44;100932.53;4959134;28;45458;-56
2022/06/15 10:15:28;;;;;;;;;11.20;10.00;;;;;26.36;35.36;100935.22;4975035;28;45355;-55
2022/06/15 10:18:01;;;;;;;;;9.80;9.80;;;;;26.37;35.04;100936.88;4975278;28;45465;-52
2022/06/15 10:22:53;;;;;;;;;9.60;8.40;;;;;26.44;36.03;100940.09;5069580;28;45464;-54
2022/06/15 10:25:18;;;;;;;;;8.40;8.00;;;;;26.49;35.71;100934.38;5034292;28;45478;-50
2022/06/15 10:27:45;;;;;;;;;7.00;7.00;;;;;26.41;35.99;100920.22;5058076;27;45379;-55
2022/06/15 10:30:11;;;;;;;;;7.80;7.80;;;;;26.55;35.51;100937.88;5047146;27;45673;-56
2022/06/15 10:32:57;;;;;;;;;11.00;9.80;;;;;26.37;35.33;100909.56;5047788;28;45462;-56
2022/06/15 10:35:23;;;;;;;;;8.60;8.60;;;;;26.56;35.34;100935.91;5059773;28;45476;-55
2022/06/15 10:37:58;;;;;;;;;7.00;7.00;;;;;26.56;35.75;100939.53;5051487;28;45643;-58
2022/06/15 10:40:35;;;;;;;;;13.00;12.00;;;;;26.24;35.41;100871.06;5029896;28;45415;-53
2022/06/15 10:43:13;;;;;;;;;12.80;11.80;;;;;26.72;35.48;100942.03;5029960;28;46746;-58
2022/06/15 10:45:42;;;;;;;;;9.80;7.00;;;;;26.61;35.07;100907.63;5047377;28;45365;-57
2022/06/15 10:48:18;;;;;;;;;10.80;10.80;;;;;26.71;35.06;100912.19;5062516;28;45504;-58
2022/06/15 10:50:58;;;;;;;;;8.40;8.40;;;;;26.90;34.99;100938.22;5006102;27;45541;-55
2022/06/15 10:53:42;;;;;;;;;8.00;8.00;;;;;26.91;34.96;100939.06;4991293;28;45990;-58
2022/06/15 11:02:52;;;;;;;;;9.20;9.00;;;;;27.05;35.10;100925.75;5005962;28;45766;-57
2022/06/15 11:05:20;;;;;;;;;12.20;10.40;;;;;27.06;34.39;100929.41;4984081;28;46328;-54
2022/06/15 11:07:59;;;;;;;;;7.00;7.00;;;;;27.06;34.78;100915.31;5005808;28;45885;-56
2022/06/15 11:10:36;;;;;;;;;8.00;8.00;;;;;27.23;34.94;100928.69;4990830;28;45584;-55
2022/06/15 11:13:04;;;;;;;;;8.20;8.00;;;;;27.28;34.80;100922.94;5006704;28;45399;-53
2022/06/15 11:18:32;;;;;;;;;10.80;9.40;;;;;27.44;34.33;100931.78;5007354;28;45496;-54
2022/06/15 11:21:05;;;;;;;;;8.00;8.00;;;;;27.51;34.36;100931.34;5005643;28;45529;-52
2022/06/15 11:23:40;;;;;;;;;10.60;9.00;;;;;27.57;33.63;100932.03;4986868;28;45442;-55
2022/06/15 11:28:57;;;;;;;;;9.60;8.40;;;;;27.69;33.61;100935.09;5006260;28;45538;-57
2022/06/15 11:31:23;;;;;;;;;9.20;7.00;;;;;27.67;33.44;100919.66;5007323;28;45437;-53
2022/06/15 11:33:51;;;;;;;;;6.75;6.75;;;;;27.72;33.39;100923.19;4978393;28;45475;-58
2022/06/15 11:36:47;;;;;;;;;9.20;8.20;;;;;27.77;32.96;100912.91;4992839;28;46547;-55
2022/06/15 11:39:22;;;;;;;;;10.20;9.80;;;;;27.86;32.81;100919.41;4991844;28;45871;-53
2022/06/15 11:41:56;;;;;;;;;8.20;6.80;;;;;27.92;32.81;100923.75;4991155;28;45456;-57
2022/06/15 11:44:29;;;;;;;;;9.00;8.40;;;;;27.94;32.41;100912.13;4993095;28;45627;-56
2022/06/15 11:46:58;;;;;;;;;9.80;9.20;;;;;27.99;32.82;100920.44;4992552;28;45494;-50
2022/06/15 11:49:36;;;;;;;;;10.40;9.20;;;;;28.05;32.71;100923.97;4994056;28;45524;-50
2022/06/15 11:52:38;;;;;;;;;11.20;8.60;;;;;28.09;32.50;100916.50;4975868;28;45386;-54
2022/06/15 11:55:25;;;;;;;;;8.80;7.40;;;;;28.15;32.17;100920.81;5012365;28;45572;-56
2022/06/15 11:58:17;;;;;;;;;8.80;8.80;;;;;28.19;33.03;100933.13;4968566;28;46690;-54
2022/06/15 12:01:08;;;;;;;;;9.00;9.00;;;;;28.24;32.51;100932.16;4987024;28;45794;-57
2022/06/15 12:03:52;;;;;;;;;13.80;10.00;;;;;28.29;31.89;100932.03;4973665;28;45839;-59